Time;durP1;ratioP1;P1;durP2;ratioP2;P2;SDS_P1;SDS_P2;PMS_P1;PMS_P2;Temp;Humidity;BMP_temperature;BMP_pressure;BME280_temperature;BME280_humidity;BME280_pressure;Samples;Min_cycle;Max_cycle;Signal;HPM_P1;HPM_P2
2021/06/25 00:01:09;;;;;;;9.80;8.97;;;20.00;98.40;;;;;;5052794;28;20680;-49
2021/06/25 00:03:36;;;;;;;11.20;10.40;;;19.90;98.70;;;;;;5058862;28;20991;-49
2021/06/25 00:06:03;;;;;;;14.10;9.10;;;19.80;99.00;;;;;;5072540;28;20621;-49
2021/06/25 00:08:30;;;;;;;10.63;9.60;;;19.70;99.20;;;;;;5071615;28;20657;-49
2021/06/25 00:10:57;;;;;;;8.60;7.80;;;19.70;99.60;;;;;;5072278;28;20677;-48
2021/06/25 00:13:26;;;;;;;10.37;9.37;;;19.60;99.50;;;;;;5057058;28;20617;-50
2021/06/25 00:15:53;;;;;;;9.33;8.43;;;19.50;99.70;;;;;;5072496;28;20977;-50
2021/06/25 00:18:21;;;;;;;9.40;8.50;;;19.50;99.90;;;;;;5072210;28;21157;-49
2021/06/25 00:20:48;;;;;;;11.50;8.40;;;19.50;99.90;;;;;;5072374;28;20628;-49
2021/06/25 00:23:15;;;;;;;9.33;8.63;;;19.40;99.90;;;;;;5071108;28;20621;-49
2021/06/25 00:25:42;;;;;;;9.07;8.17;;;19.40;99.90;;;;;;5064901;28;20980;-49
2021/06/25 00:28:10;;;;;;;9.97;9.00;;;19.40;99.90;;;;;;5051582;28;20661;-49
2021/06/25 00:30:38;;;;;;;9.63;8.73;;;19.50;99.90;;;;;;5051667;28;20618;-49
2021/06/25 00:33:06;;;;;;;9.30;7.20;;;19.50;99.90;;;;;;5053788;28;21068;-49
2021/06/25 00:35:33;;;;;;;8.67;7.97;;;19.50;99.90;;;;;;5051587;28;20684;-47
2021/06/25 00:47:40;;;;;;;8.63;7.67;;;19.40;99.90;;;;;;5240459;22;20785;-49
2021/06/25 00:50:08;;;;;;;9.70;8.37;;;19.30;99.90;;;;;;5050481;28;20723;-48
2021/06/25 00:52:35;;;;;;;10.03;9.20;;;19.30;99.90;;;;;;5050285;28;20718;-49
2021/06/25 00:55:03;;;;;;;10.70;8.10;;;19.30;99.90;;;;;;5051887;28;20691;-49
2021/06/25 00:57:30;;;;;;;12.20;7.73;;;19.30;99.90;;;;;;5053056;28;20768;-48
2021/06/25 00:59:58;;;;;;;12.80;11.50;;;19.40;99.90;;;;;;5051970;28;20614;-48
2021/06/25 01:02:25;;;;;;;13.00;10.80;;;19.40;99.90;;;;;;5051603;28;21241;-47
2021/06/25 01:04:55;;;;;;;11.70;10.60;;;19.30;99.90;;;;;;5050937;28;20622;-48
2021/06/25 01:07:22;;;;;;;11.23;10.17;;;19.30;99.90;;;;;;5052379;28;20711;-47
2021/06/25 01:09:49;;;;;;;13.27;10.50;;;19.20;99.90;;;;;;5051495;28;20662;-48
2021/06/25 01:12:16;;;;;;;13.27;10.30;;;19.20;99.90;;;;;;5051829;28;20667;-47
2021/06/25 01:14:44;;;;;;;14.40;12.87;;;19.10;99.90;;;;;;5055010;28;20634;-48
2021/06/25 01:17:29;;;;;;;12.97;11.70;;;19.00;99.90;;;;;;5051359;28;20658;-47
2021/06/25 01:19:58;;;;;;;12.67;11.57;;;18.90;99.90;;;;;;5051419;28;20614;-47
2021/06/25 01:22:34;;;;;;;13.90;12.60;;;19.00;99.90;;;;;;5051389;28;20650;-47
2021/06/25 01:25:04;;;;;;;12.50;11.27;;;19.10;99.90;;;;;;5051470;28;20629;-47
2021/06/25 01:27:32;;;;;;;14.83;13.37;;;19.10;99.90;;;;;;5050846;28;20708;-48
2021/06/25 01:29:59;;;;;;;12.73;11.63;;;19.10;99.90;;;;;;5052193;28;20715;-47
2021/06/25 01:32:26;;;;;;;13.80;12.70;;;19.50;99.90;;;;;;5050703;28;21029;-47
2021/06/25 01:34:54;;;;;;;13.40;12.20;;;19.60;99.90;;;;;;5051156;28;21162;-49
2021/06/25 01:37:21;;;;;;;13.17;11.93;;;19.50;99.90;;;;;;5050472;28;20690;-50
2021/06/25 01:39:51;;;;;;;14.40;12.63;;;19.40;99.90;;;;;;5050994;28;20630;-49
2021/06/25 01:42:18;;;;;;;14.37;13.17;;;19.30;99.90;;;;;;5051162;28;20700;-49
2021/06/25 01:44:46;;;;;;;15.50;14.10;;;19.30;99.90;;;;;;5050530;28;20634;-50
2021/06/25 01:47:13;;;;;;;15.37;14.00;;;19.20;99.90;;;;;;5057594;28;21231;-46
2021/06/25 01:49:42;;;;;;;15.00;13.60;;;19.20;99.90;;;;;;5070244;28;21477;-47
2021/06/25 01:52:13;;;;;;;13.77;12.57;;;19.10;99.90;;;;;;5070766;28;20625;-46
2021/06/25 01:54:40;;;;;;;17.43;15.63;;;19.10;99.90;;;;;;5059637;28;20660;-47
2021/06/25 01:57:09;;;;;;;16.60;15.10;;;19.10;99.90;;;;;;5050420;28;21194;-47
2021/06/25 01:59:36;;;;;;;19.10;16.80;;;19.10;99.90;;;;;;5050883;28;20705;-46
2021/06/25 02:02:03;;;;;;;15.87;14.30;;;19.10;99.90;;;;;;5050840;28;20657;-47
2021/06/25 02:04:31;;;;;;;16.33;14.83;;;19.10;99.90;;;;;;5051706;28;20965;-49
2021/06/25 02:06:58;;;;;;;16.80;15.40;;;19.20;99.90;;;;;;5050278;28;20788;-48
2021/06/25 02:09:25;;;;;;;14.40;12.90;;;19.20;99.90;;;;;;5050356;28;20705;-48
2021/06/25 02:11:52;;;;;;;17.23;15.73;;;19.10;99.90;;;;;;5050745;28;20654;-48
2021/06/25 02:14:22;;;;;;;17.30;15.60;;;19.00;99.90;;;;;;5050358;28;20657;-48
2021/06/25 02:16:49;;;;;;;17.07;15.43;;;19.00;99.90;;;;;;5050835;28;21119;-48
2021/06/25 02:19:17;;;;;;;17.87;16.37;;;19.10;99.90;;;;;;5050239;28;20650;-48
2021/06/25 02:21:44;;;;;;;17.10;15.50;;;19.00;99.90;;;;;;5063739;28;20659;-49
2021/06/25 02:24:11;;;;;;;17.53;16.03;;;19.10;99.90;;;;;;5063485;28;20665;-48
2021/06/25 02:26:38;;;;;;;17.50;16.00;;;19.00;99.90;;;;;;5050388;28;20630;-49
2021/06/25 02:29:05;;;;;;;18.47;16.90;;;19.00;99.90;;;;;;5049710;28;20751;-49
2021/06/25 02:31:34;;;;;;;15.73;14.33;;;19.00;99.90;;;;;;5049657;28;20649;-48
2021/06/25 02:34:01;;;;;;;19.73;16.07;;;18.90;99.90;;;;;;5049553;28;20983;-48
2021/06/25 02:36:28;;;;;;;17.80;16.07;;;18.90;99.90;;;;;;5049503;28;20650;-49
2021/06/25 02:38:56;;;;;;;17.17;15.60;;;18.90;99.90;;;;;;5051081;28;21190;-48
2021/06/25 02:41:23;;;;;;;17.23;15.70;;;18.90;99.90;;;;;;5050053;28;20982;-48
2021/06/25 02:43:51;;;;;;;16.17;14.70;;;18.90;99.90;;;;;;5050083;28;20664;-47
2021/06/25 02:46:18;;;;;;;17.80;16.17;;;18.90;99.90;;;;;;5049703;28;20708;-49
2021/06/25 02:48:46;;;;;;;17.90;16.40;;;18.90;99.90;;;;;;5049511;28;20696;-47
2021/06/25 02:51:14;;;;;;;17.53;15.87;;;18.90;99.90;;;;;;5049606;28;20754;-48
2021/06/25 02:53:41;;;;;;;17.63;16.03;;;18.90;99.90;;;;;;5049184;28;20653;-49
2021/06/25 02:56:08;;;;;;;18.43;16.80;;;18.90;99.90;;;;;;5050757;28;20661;-49
2021/06/25 02:58:35;;;;;;;19.77;18.07;;;19.00;99.90;;;;;;5048489;28;20677;-49
2021/06/25 03:01:02;;;;;;;20.23;18.30;;;19.20;99.90;;;;;;5049516;28;21268;-49
2021/06/25 03:03:30;;;;;;;19.07;17.00;;;19.30;99.90;;;;;;5031841;28;20622;-49
2021/06/25 03:05:58;;;;;;;17.73;16.13;;;19.30;99.90;;;;;;5049514;28;20729;-49
2021/06/25 03:08:25;;;;;;;19.60;17.70;;;19.20;99.90;;;;;;5049867;28;20753;-50
2021/06/25 03:10:53;;;;;;;18.97;17.20;;;19.10;99.90;;;;;;5050623;28;20682;-49
2021/06/25 03:13:20;;;;;;;18.97;17.37;;;19.00;99.90;;;;;;5049915;28;21187;-49
2021/06/25 03:15:48;;;;;;;17.70;15.93;;;19.30;99.90;;;;;;5029512;28;21081;-47
2021/06/25 03:18:15;;;;;;;18.80;17.10;;;19.50;99.90;;;;;;5029798;28;20682;-48
2021/06/25 03:20:42;;;;;;;18.83;16.80;;;19.40;99.90;;;;;;5029708;28;20627;-48
2021/06/25 03:23:11;;;;;;;19.13;17.50;;;19.30;99.90;;;;;;5029643;28;20630;-47
2021/06/25 03:25:38;;;;;;;18.40;16.80;;;19.20;99.90;;;;;;5048614;28;20633;-47
2021/06/25 03:28:06;;;;;;;19.33;17.53;;;19.10;99.90;;;;;;5055120;28;20685;-48
2021/06/25 03:30:33;;;;;;;18.47;16.57;;;19.00;99.90;;;;;;5056943;28;20685;-47
2021/06/25 03:33:01;;;;;;;17.30;15.83;;;19.00;99.90;;;;;;5068101;28;20657;-47
2021/06/25 03:35:28;;;;;;;21.33;18.97;;;19.00;99.90;;;;;;5048611;28;21012;-47
2021/06/25 03:37:55;;;;;;;19.13;17.53;;;18.90;99.90;;;;;;5048131;28;20689;-47
2021/06/25 03:40:24;;;;;;;19.70;18.00;;;18.90;99.90;;;;;;5048689;28;20661;-46
2021/06/25 03:42:51;;;;;;;20.07;18.27;;;18.90;99.90;;;;;;5048845;28;20698;-48
2021/06/25 03:45:18;;;;;;;19.03;17.37;;;18.90;99.90;;;;;;5048822;28;20965;-47
2021/06/25 03:47:45;;;;;;;20.60;18.67;;;18.90;99.90;;;;;;5048887;28;20698;-48
2021/06/25 03:50:13;;;;;;;19.60;17.90;;;18.90;99.90;;;;;;5048351;28;20686;-47
2021/06/25 03:52:40;;;;;;;17.23;15.73;;;18.80;99.90;;;;;;5049034;28;20691;-47
2021/06/25 03:55:09;;;;;;;19.50;17.60;;;18.80;99.90;;;;;;5049341;28;20658;-47
2021/06/25 03:57:38;;;;;;;20.60;18.33;;;18.80;99.90;;;;;;5048268;28;21186;-49
2021/06/25 04:00:08;;;;;;;19.80;18.07;;;18.80;99.90;;;;;;5048074;28;20622;-48
2021/06/25 04:02:35;;;;;;;18.23;16.70;;;18.80;99.90;;;;;;5048554;28;20650;-48
2021/06/25 04:05:03;;;;;;;19.50;17.70;;;18.90;99.90;;;;;;5048400;28;20787;-48
2021/06/25 04:07:30;;;;;;;18.50;16.90;;;19.10;99.90;;;;;;5048252;28;20675;-49
2021/06/25 04:09:57;;;;;;;16.63;15.17;;;19.10;99.90;;;;;;5051027;28;20693;-48
2021/06/25 04:12:25;;;;;;;17.47;15.77;;;19.10;99.90;;;;;;5051738;28;20662;-48
2021/06/25 04:14:53;;;;;;;16.70;15.40;;;19.00;99.90;;;;;;5051430;28;20671;-48
2021/06/25 04:17:20;;;;;;;19.43;16.70;;;19.00;99.90;;;;;;5051606;28;20740;-48
2021/06/25 04:19:48;;;;;;;18.30;16.57;;;19.00;99.90;;;;;;5052154;28;20650;-48
2021/06/25 04:22:15;;;;;;;17.23;15.53;;;19.00;99.90;;;;;;5052610;28;20740;-48
2021/06/25 04:24:42;;;;;;;19.80;18.07;;;19.00;99.90;;;;;;5051593;28;20675;-49
2021/06/25 04:27:09;;;;;;;16.90;15.57;;;19.10;99.90;;;;;;5052701;28;20727;-48
2021/06/25 04:29:37;;;;;;;17.43;15.77;;;19.10;99.90;;;;;;5050916;28;20626;-48
2021/06/25 04:32:06;;;;;;;18.97;16.87;;;19.10;99.90;;;;;;5052589;28;20675;-49
2021/06/25 04:34:33;;;;;;;17.70;16.17;;;19.10;99.90;;;;;;5052079;28;20729;-48
2021/06/25 04:37:00;;;;;;;16.93;15.40;;;19.20;99.90;;;;;;5057293;28;20692;-47
2021/06/25 04:39:28;;;;;;;16.80;15.30;;;19.20;99.90;;;;;;5068207;28;20703;-49
2021/06/25 04:41:55;;;;;;;17.93;16.23;;;19.20;99.90;;;;;;5052180;28;20709;-49
2021/06/25 04:44:22;;;;;;;17.83;16.33;;;19.20;99.90;;;;;;5052439;28;20649;-47
2021/06/25 04:46:49;;;;;;;18.83;17.07;;;19.10;99.90;;;;;;5051358;28;21057;-48
2021/06/25 04:49:18;;;;;;;19.33;17.73;;;19.10;99.90;;;;;;5051959;28;20653;-48
2021/06/25 04:51:45;;;;;;;18.90;17.10;;;19.00;99.90;;;;;;5051813;28;21246;-47
2021/06/25 04:54:12;;;;;;;19.10;17.50;;;19.00;99.90;;;;;;5053081;28;20621;-48
2021/06/25 04:56:39;;;;;;;18.63;17.03;;;19.00;99.90;;;;;;5053164;28;20637;-49
2021/06/25 04:59:07;;;;;;;20.63;18.63;;;19.10;99.90;;;;;;5058073;28;21046;-48
2021/06/25 05:01:34;;;;;;;20.00;17.63;;;19.00;99.90;;;;;;5051323;28;20650;-49
2021/06/25 05:04:01;;;;;;;20.07;18.40;;;19.00;99.90;;;;;;5051512;28;20622;-48
2021/06/25 05:06:29;;;;;;;18.77;17.13;;;19.00;99.90;;;;;;5051904;28;20677;-49
2021/06/25 05:08:57;;;;;;;21.03;19.33;;;19.00;99.90;;;;;;5051136;28;20680;-49
2021/06/25 05:11:24;;;;;;;21.80;19.83;;;19.10;99.90;;;;;;5051277;28;20685;-49
2021/06/25 05:13:51;;;;;;;24.17;21.97;;;19.10;99.90;;;;;;5049370;28;20974;-48
2021/06/25 05:16:18;;;;;;;22.97;20.97;;;19.00;99.90;;;;;;5031536;28;20666;-48
2021/06/25 05:18:45;;;;;;;20.60;18.83;;;19.00;99.90;;;;;;5031065;28;20751;-49
2021/06/25 05:21:13;;;;;;;27.97;23.80;;;19.00;99.90;;;;;;5030631;28;20701;-50
2021/06/25 05:23:41;;;;;;;26.97;24.50;;;19.00;99.90;;;;;;5036233;28;20957;-49
2021/06/25 05:26:08;;;;;;;27.47;24.57;;;19.20;99.90;;;;;;5050197;28;20628;-50
2021/06/25 05:28:36;;;;;;;29.73;26.47;;;19.20;99.90;;;;;;5058713;28;20681;-49
2021/06/25 05:31:03;;;;;;;30.63;27.90;;;19.30;99.90;;;;;;5069227;28;21181;-49
2021/06/25 05:33:30;;;;;;;30.83;28.23;;;19.40;99.80;;;;;;5063757;28;20748;-50
2021/06/25 05:35:58;;;;;;;32.47;29.70;;;19.40;99.70;;;;;;5031643;28;20768;-49
2021/06/25 05:38:25;;;;;;;34.57;31.37;;;19.30;99.70;;;;;;5037576;28;20693;-49
2021/06/25 05:40:53;;;;;;;33.27;30.00;;;19.30;99.70;;;;;;5050558;28;20658;-49
2021/06/25 05:43:21;;;;;;;36.43;33.23;;;19.20;99.60;;;;;;5050559;28;20630;-49
2021/06/25 05:45:48;;;;;;;30.17;27.23;;;19.30;99.80;;;;;;5050709;28;20633;-48
2021/06/25 05:48:15;;;;;;;35.37;32.10;;;19.60;99.40;;;;;;5050336;28;20696;-49
2021/06/25 05:50:42;;;;;;;36.33;32.90;;;19.90;99.00;;;;;;5044447;28;20649;-47
2021/06/25 05:53:09;;;;;;;38.43;35.00;;;19.90;98.60;;;;;;5067061;28;20630;-49
2021/06/25 05:55:37;;;;;;;37.17;33.80;;;19.70;98.30;;;;;;5050716;28;20666;-49
2021/06/25 05:58:05;;;;;;;32.77;29.73;;;19.50;98.40;;;;;;5050846;28;20681;-49
2021/06/25 06:00:32;;;;;;;34.77;31.47;;;19.50;99.10;;;;;;5050184;28;20695;-50
2021/06/25 06:03:00;;;;;;;35.57;32.47;;;20.10;98.50;;;;;;5050615;28;20658;-49
2021/06/25 06:05:27;;;;;;;36.63;33.60;;;20.30;98.00;;;;;;5051024;28;20668;-48
2021/06/25 06:07:55;;;;;;;35.20;32.07;;;20.30;97.90;;;;;;5050589;28;20723;-46
2021/06/25 06:10:22;;;;;;;37.87;34.43;;;20.60;97.90;;;;;;5050354;28;21182;-48
2021/06/25 06:12:50;;;;;;;39.40;35.70;;;20.90;97.20;;;;;;5052129;28;21186;-50
2021/06/25 06:15:19;;;;;;;38.63;35.30;;;20.70;96.90;;;;;;5051931;28;20629;-50
2021/06/25 06:17:50;;;;;;;39.47;35.77;;;20.70;97.40;;;;;;5033619;28;20661;-49
2021/06/25 06:20:20;;;;;;;40.47;37.07;;;20.50;96.90;;;;;;5050585;28;20764;-49
2021/06/25 06:31:19;;;;;;;29.60;26.60;;;20.50;97.20;;;;;;5051354;28;20634;-49
2021/06/25 06:33:49;;;;;;;42.10;38.20;;;20.50;97.50;;;;;;5049884;28;20622;-47
2021/06/25 06:36:22;;;;;;;42.83;39.00;;;20.60;97.00;;;;;;5050497;28;20677;-48
2021/06/25 06:38:49;;;;;;;37.60;34.13;;;20.50;96.90;;;;;;5030043;28;21151;-47
2021/06/25 06:41:17;;;;;;;36.33;32.57;;;20.50;97.30;;;;;;5050092;28;21131;-49
2021/06/25 06:43:45;;;;;;;34.07;30.97;;;20.70;97.20;;;;;;5049363;28;20764;-48
2021/06/25 06:46:13;;;;;;;33.77;30.73;;;20.90;97.10;;;;;;5049707;28;20687;-49
2021/06/25 06:48:41;;;;;;;38.20;34.70;;;21.30;96.30;;;;;;5049632;28;20678;-48
2021/06/25 06:51:08;;;;;;;36.20;32.83;;;21.70;95.40;;;;;;5050025;28;20701;-48
2021/06/25 06:53:36;;;;;;;26.80;24.60;;;21.90;94.90;;;;;;5049409;28;21237;-49
2021/06/25 06:56:03;;;;;;;32.10;29.30;;;22.00;94.70;;;;;;5050145;28;20636;-49
2021/06/25 06:58:30;;;;;;;36.50;33.27;;;22.00;94.20;;;;;;5050140;28;20650;-49
2021/06/25 07:00:58;;;;;;;36.67;33.37;;;21.80;93.90;;;;;;5032801;28;20637;-50
2021/06/25 07:03:26;;;;;;;35.37;32.03;;;21.70;94.40;;;;;;5050480;28;20661;-50
2021/06/25 07:05:54;;;;;;;35.37;32.17;;;21.50;94.00;;;;;;5050080;28;20653;-50
2021/06/25 07:08:21;;;;;;;28.00;25.33;;;21.30;94.80;;;;;;5050137;28;20654;-49
2021/06/25 07:10:49;;;;;;;29.30;26.70;;;21.50;95.00;;;;;;5031482;28;20649;-48
2021/06/25 07:13:16;;;;;;;33.50;30.50;;;21.80;94.60;;;;;;5049833;28;20665;-48
2021/06/25 07:15:43;;;;;;;32.70;29.73;;;21.70;94.20;;;;;;5050228;28;20622;-49
2021/06/25 07:18:11;;;;;;;28.27;25.67;;;21.60;94.80;;;;;;5049894;28;21226;-50
2021/06/25 07:20:43;;;;;;;32.37;29.47;;;21.50;95.00;;;;;;5049451;28;20663;-50
2021/06/25 07:23:11;;;;;;;35.97;32.57;;;21.80;95.00;;;;;;5049701;28;20618;-49
2021/06/25 07:25:40;;;;;;;36.40;32.90;;;21.80;94.10;;;;;;5050152;28;20606;-49
2021/06/25 07:28:12;;;;;;;36.43;33.23;;;21.40;93.90;;;;;;5049849;28;20649;-49
2021/06/25 07:30:39;;;;;;;36.53;33.40;;;21.20;94.60;;;;;;5048691;28;20680;-48
2021/06/25 07:33:07;;;;;;;29.00;26.37;;;21.00;95.20;;;;;;5049512;28;21072;-47
2021/06/25 07:35:34;;;;;;;34.03;31.00;;;20.80;95.70;;;;;;5049908;28;20618;-47
2021/06/25 07:38:03;;;;;;;31.50;28.80;;;20.60;95.60;;;;;;5049585;28;20650;-50
2021/06/25 07:40:30;;;;;;;40.47;36.47;;;20.60;96.30;;;;;;5047880;28;20630;-47
2021/06/25 07:43:00;;;;;;;37.43;33.87;;;20.50;96.00;;;;;;5049979;28;20634;-47
2021/06/25 07:45:27;;;;;;;37.37;34.07;;;20.60;96.40;;;;;;5053177;28;20634;-48
2021/06/25 07:47:55;;;;;;;37.60;33.80;;;20.70;96.60;;;;;;5052735;28;20670;-49
2021/06/25 07:50:23;;;;;;;40.33;36.70;;;20.90;96.00;;;;;;5053602;28;20633;-50
2021/06/25 07:52:51;;;;;;;40.10;36.00;;;20.80;95.70;;;;;;5053782;28;20682;-46
2021/06/25 07:55:19;;;;;;;38.03;34.63;;;20.70;96.10;;;;;;5052622;28;20630;-49
2021/06/25 07:57:47;;;;;;;36.77;33.40;;;20.60;95.50;;;;;;5053640;28;20658;-49
2021/06/25 08:00:15;;;;;;;36.00;32.57;;;21.00;96.40;;;;;;5053123;28;20994;-49
2021/06/25 08:02:42;;;;;;;35.57;32.37;;;21.50;95.00;;;;;;5053676;28;20642;-48
2021/06/25 08:05:10;;;;;;;32.80;29.83;;;21.80;94.80;;;;;;5052801;28;20653;-49
2021/06/25 08:07:37;;;;;;;35.07;31.87;;;21.70;93.70;;;;;;5052626;28;20692;-49
2021/06/25 08:10:06;;;;;;;33.90;30.87;;;21.50;93.40;;;;;;5052467;28;20649;-49
2021/06/25 08:12:34;;;;;;;34.77;31.47;;;21.30;93.50;;;;;;5053248;28;20673;-49
2021/06/25 08:15:02;;;;;;;33.20;30.33;;;21.10;94.40;;;;;;5052228;28;20989;-48
2021/06/25 08:17:29;;;;;;;35.60;32.30;;;21.20;94.40;;;;;;5052284;28;20710;-48
2021/06/25 08:19:56;;;;;;;34.37;31.37;;;21.40;94.50;;;;;;5033967;28;20784;-55
2021/06/25 08:22:24;;;;;;;35.13;31.80;;;21.80;93.70;;;;;;5052257;28;20621;-48
2021/06/25 08:24:51;;;;;;;35.57;32.03;;;22.10;93.20;;;;;;5052683;28;20687;-49
2021/06/25 08:27:18;;;;;;;35.67;32.70;;;22.20;92.00;;;;;;5052340;28;20713;-49
2021/06/25 08:29:47;;;;;;;27.77;25.23;;;22.30;92.30;;;;;;5052284;28;20979;-52
2021/06/25 08:32:15;;;;;;;34.03;30.87;;;22.70;91.80;;;;;;5051850;28;21045;-50
2021/06/25 08:34:42;;;;;;;34.50;31.30;;;22.70;91.10;;;;;;5052370;28;20721;-50
2021/06/25 08:37:10;;;;;;;34.30;31.20;;;22.60;90.70;;;;;;5053572;28;20653;-49
2021/06/25 08:39:38;;;;;;;26.87;24.57;;;22.50;91.10;;;;;;5041717;28;20633;-50
2021/06/25 08:42:17;;;;;;;33.40;30.40;;;22.40;91.40;;;;;;5054430;28;20637;-50
2021/06/25 08:44:45;;;;;;;35.93;32.60;;;22.30;91.40;;;;;;5054567;28;20632;-49
2021/06/25 08:47:14;;;;;;;35.50;32.47;;;22.50;91.10;;;;;;5051989;28;20700;-49
2021/06/25 08:49:44;;;;;;;33.63;30.60;;;22.40;91.30;;;;;;5052883;28;20629;-50
2021/06/25 08:52:12;;;;;;;31.97;28.87;;;22.80;91.00;;;;;;5052942;28;20654;-49
2021/06/25 08:54:39;;;;;;;34.07;30.80;;;22.90;90.70;;;;;;5052957;28;20618;-48
2021/06/25 08:57:08;;;;;;;22.63;20.77;;;22.60;90.00;;;;;;5051032;28;20785;-47
2021/06/25 08:59:36;;;;;;;34.67;31.67;;;22.70;90.70;;;;;;5052303;28;20670;-49
2021/06/25 09:02:03;;;;;;;35.60;32.20;;;22.80;90.00;;;;;;5051898;28;20630;-49
2021/06/25 09:04:33;;;;;;;37.10;33.70;;;22.60;89.30;;;;;;5051493;28;20654;-49
2021/06/25 09:07:00;;;;;;;32.73;29.63;;;22.20;89.80;;;;;;5053470;28;20760;-49
2021/06/25 09:09:37;;;;;;;31.07;28.27;;;21.90;91.30;;;;;;5051294;28;20626;-48
2021/06/25 09:12:10;;;;;;;34.63;31.27;;;21.80;91.40;;;;;;5051487;28;20653;-49
2021/06/25 09:15:01;;;;;;;40.90;36.83;;;21.70;91.80;;;;;;5051544;28;20633;-50
2021/06/25 09:17:28;;;;;;;38.57;35.17;;;21.50;91.60;;;;;;5051417;28;21320;-51
2021/06/25 09:19:57;;;;;;;34.53;31.27;;;21.30;92.00;;;;;;5051295;28;20646;-52
2021/06/25 09:22:24;;;;;;;38.37;34.83;;;21.20;92.50;;;;;;5033286;28;20637;-50
2021/06/25 09:25:03;;;;;;;31.00;28.17;;;21.50;92.60;;;;;;5049715;28;20637;-50
2021/06/25 09:27:31;;;;;;;35.20;31.73;;;21.80;92.30;;;;;;5051095;28;20661;-50
2021/06/25 09:29:59;;;;;;;32.27;29.17;;;22.30;91.50;;;;;;5051285;28;20630;-50
2021/06/25 09:32:36;;;;;;;32.50;29.43;;;22.60;90.90;;;;;;5051498;28;20735;-50
2021/06/25 09:35:16;;;;;;;31.30;28.50;;;22.50;90.10;;;;;;5051604;28;20626;-49
2021/06/25 09:37:44;;;;;;;34.63;31.50;;;22.20;89.70;;;;;;5051598;28;20708;-50
2021/06/25 09:40:13;;;;;;;33.77;30.70;;;21.90;90.50;;;;;;5050835;28;20649;-49
2021/06/25 09:42:42;;;;;;;37.90;34.40;;;22.20;91.10;;;;;;5051559;28;21234;-50
2021/06/25 09:45:11;;;;;;;32.10;29.20;;;22.10;89.80;;;;;;5051038;28;20658;-50
2021/06/25 09:47:39;;;;;;;36.47;33.07;;;22.20;90.80;;;;;;5050855;28;20690;-49
2021/06/25 09:50:13;;;;;;;34.97;31.67;;;22.30;90.20;;;;;;5051386;28;20666;-48
2021/06/25 09:52:50;;;;;;;27.50;24.97;;;22.50;90.50;;;;;;5033290;28;20666;-48
2021/06/25 09:55:18;;;;;;;39.07;35.20;;;22.90;89.90;;;;;;5051093;28;20626;-51
2021/06/25 10:01:23;;;;;;;37.27;33.37;;;22.50;89.90;;;;;;4989581;28;20629;-50
2021/06/25 10:03:51;;;;;;;41.33;37.63;;;22.40;90.40;;;;;;4988964;28;20663;-49
2021/06/25 10:06:20;;;;;;;42.10;38.30;;;22.40;90.20;;;;;;5032543;28;21185;-49
2021/06/25 10:08:47;;;;;;;41.30;37.40;;;22.50;90.10;;;;;;5050537;28;20715;-49
2021/06/25 10:11:18;;;;;;;41.70;37.83;;;22.30;90.10;;;;;;5052204;28;20998;-49
2021/06/25 10:13:47;;;;;;;43.63;39.70;;;22.20;90.50;;;;;;5054219;28;20661;-48
2021/06/25 10:16:15;;;;;;;39.97;36.10;;;22.30;90.40;;;;;;5050844;28;20630;-49
2021/06/25 10:18:42;;;;;;;44.27;39.97;;;22.20;90.30;;;;;;5050770;28;20666;-48
2021/06/25 10:21:11;;;;;;;42.53;38.20;;;22.30;90.20;;;;;;5050963;28;20677;-49
2021/06/25 10:23:40;;;;;;;41.43;37.53;;;22.10;89.60;;;;;;5051549;28;20626;-48
2021/06/25 10:26:08;;;;;;;39.93;36.10;;;21.90;90.50;;;;;;5050313;28;20646;-49
2021/06/25 10:28:40;;;;;;;41.03;36.77;;;22.00;90.60;;;;;;5050519;28;20654;-49
2021/06/25 10:31:09;;;;;;;38.77;35.13;;;22.10;90.00;;;;;;5050233;28;20684;-50
2021/06/25 10:33:37;;;;;;;37.13;33.37;;;22.10;90.70;;;;;;5051141;28;21226;-50
2021/06/25 10:36:06;;;;;;;40.00;36.20;;;22.40;90.40;;;;;;5048748;28;20937;-49
2021/06/25 10:38:34;;;;;;;42.90;38.80;;;22.30;90.10;;;;;;5050119;28;20645;-48
2021/06/25 10:41:05;;;;;;;38.80;35.30;;;22.20;89.40;;;;;;5050717;28;20630;-48
2021/06/25 10:43:45;;;;;;;35.90;32.33;;;22.10;90.50;;;;;;5050375;28;20762;-50
2021/06/25 10:46:33;;;;;;;43.03;39.03;;;22.40;90.20;;;;;;5050266;28;20632;-49
2021/06/25 10:49:01;;;;;;;34.37;31.27;;;22.30;88.00;;;;;;5049764;28;20673;-52
2021/06/25 10:51:31;;;;;;;41.07;37.27;;;22.50;90.00;;;;;;5050118;28;20690;-48
2021/06/25 10:54:15;;;;;;;36.80;33.43;;;22.50;88.00;;;;;;5050286;28;21228;-51
2021/06/25 10:56:45;;;;;;;36.33;33.20;;;22.60;89.00;;;;;;5049453;28;20653;-48
2021/06/25 10:59:19;;;;;;;37.63;34.33;;;23.00;87.80;;;;;;5049729;28;20715;-49
2021/06/25 11:01:48;;;;;;;40.30;36.30;;;23.40;86.30;;;;;;5032222;28;20779;-48
2021/06/25 11:04:33;;;;;;;38.53;34.90;;;23.20;83.70;;;;;;5049882;28;20622;-49
2021/06/25 11:07:03;;;;;;;35.30;32.10;;;22.90;84.70;;;;;;5049431;28;20819;-49
2021/06/25 11:09:55;;;;;;;29.27;26.67;;;22.80;84.70;;;;;;5049757;28;20626;-48
2021/06/25 11:12:25;;;;;;;34.33;31.13;;;22.80;86.20;;;;;;5049783;28;20630;-49
2021/06/25 11:14:55;;;;;;;34.80;31.90;;;22.80;84.20;;;;;;5049697;28;20690;-50
2021/06/25 11:17:49;;;;;;;37.57;34.07;;;22.90;85.20;;;;;;5049819;28;20669;-49
2021/06/25 11:20:28;;;;;;;36.93;33.67;;;22.90;84.70;;;;;;5051882;28;20629;-50
2021/06/25 11:22:58;;;;;;;28.07;25.67;;;23.10;85.20;;;;;;5053943;28;20652;-48
2021/06/25 11:25:39;;;;;;;33.43;30.17;;;23.30;84.90;;;;;;5035800;28;20633;-48
2021/06/25 11:28:24;;;;;;;36.37;33.10;;;23.40;83.60;;;;;;5053406;28;20669;-49
2021/06/25 11:30:58;;;;;;;38.13;34.83;;;23.30;81.00;;;;;;5053767;28;20668;-49
2021/06/25 11:33:34;;;;;;;30.67;27.97;;;23.30;82.90;;;;;;5035311;28;20785;-51
2021/06/25 11:36:43;;;;;;;34.50;31.07;;;23.30;82.80;;;;;;5053587;28;21055;-50
2021/06/25 11:39:14;;;;;;;33.83;30.70;;;23.40;80.80;;;;;;5053629;28;20695;-49
2021/06/25 11:41:47;;;;;;;23.20;21.10;;;23.30;79.70;;;;;;5053480;28;20692;-50
2021/06/25 11:44:16;;;;;;;30.73;27.73;;;23.40;81.90;;;;;;5053430;28;20622;-48
2021/06/25 11:46:51;;;;;;;38.40;34.90;;;23.50;79.80;;;;;;5052960;28;20683;-48
2021/06/25 11:49:18;;;;;;;33.63;30.53;;;23.50;78.20;;;;;;5052263;28;20625;-48
2021/06/25 11:51:46;;;;;;;32.87;29.73;;;23.40;80.20;;;;;;5052957;28;20644;-49
2021/06/25 11:54:13;;;;;;;29.87;27.20;;;23.40;79.00;;;;;;5053255;28;21229;-49
2021/06/25 11:56:44;;;;;;;33.90;30.60;;;23.30;78.40;;;;;;5051772;28;20718;-49
2021/06/25 11:59:12;;;;;;;29.40;26.73;;;23.30;79.50;;;;;;5052788;28;20740;-49
2021/06/25 12:01:55;;;;;;;29.60;26.90;;;23.30;79.80;;;;;;5053232;28;20661;-49
2021/06/25 12:04:39;;;;;;;28.00;25.30;;;23.40;80.70;;;;;;5051690;28;20650;-49
2021/06/25 12:07:08;;;;;;;28.50;26.00;;;23.50;78.40;;;;;;5052689;28;20665;-50
2021/06/25 12:09:39;;;;;;;33.70;30.50;;;23.40;77.40;;;;;;5052771;28;20661;-50
2021/06/25 12:12:07;;;;;;;29.03;26.33;;;23.40;77.50;;;;;;5053211;28;20668;-50
2021/06/25 12:14:44;;;;;;;31.57;28.60;;;23.50;79.50;;;;;;5052827;28;20690;-48
2021/06/25 12:17:13;;;;;;;28.50;25.90;;;23.50;76.90;;;;;;5052811;28;20689;-48
2021/06/25 12:19:41;;;;;;;29.87;27.07;;;23.50;78.80;;;;;;5052992;28;20618;-48
2021/06/25 12:22:11;;;;;;;28.60;25.97;;;23.50;77.00;;;;;;5053243;28;20641;-50
2021/06/25 12:24:48;;;;;;;28.07;25.37;;;23.50;76.30;;;;;;5052783;28;20672;-50
2021/06/25 12:27:15;;;;;;;28.67;25.77;;;23.40;76.50;;;;;;5052550;28;20645;-48
2021/06/25 12:29:46;;;;;;;23.90;21.60;;;23.50;74.20;;;;;;5051778;28;21207;-50
2021/06/25 12:32:21;;;;;;;20.13;18.23;;;23.70;75.20;;;;;;5051939;28;20644;-49
2021/06/25 12:34:48;;;;;;;21.43;19.37;;;23.80;76.90;;;;;;5053010;28;20661;-50
2021/06/25 12:37:16;;;;;;;20.67;18.57;;;23.90;73.10;;;;;;5053072;28;20694;-50
2021/06/25 12:39:49;;;;;;;19.30;17.70;;;23.90;72.50;;;;;;5053115;28;20754;-53
2021/06/25 12:42:21;;;;;;;22.03;19.87;;;24.10;74.80;;;;;;5053495;28;21189;-49
2021/06/25 12:44:48;;;;;;;19.77;17.87;;;24.30;73.40;;;;;;5052584;28;21216;-50
2021/06/25 12:47:15;;;;;;;23.70;21.60;;;24.40;73.30;;;;;;5052056;28;20680;-47
2021/06/25 12:49:44;;;;;;;23.50;21.27;;;24.40;71.50;;;;;;5052117;28;20733;-48
2021/06/25 12:52:29;;;;;;;22.17;20.07;;;24.40;71.70;;;;;;5052503;28;20634;-47
2021/06/25 12:54:56;;;;;;;24.60;22.40;;;24.30;70.20;;;;;;5052120;28;20689;-48
2021/06/25 12:57:27;;;;;;;25.77;23.27;;;24.20;69.20;;;;;;5051998;28;20791;-49
2021/06/25 12:59:54;;;;;;;22.70;20.33;;;24.30;69.30;;;;;;5051511;28;20657;-48